sensor_id;sensor_type;location;lat;lon;timestamp;P1;durP1;ratioP1;P2;durP2;ratioP2
26864;SDS011;40618;51.166;10.322;2023-12-20T00:01:36;1.52;;;1.10;;
26864;SDS011;40618;51.166;10.322;2023-12-20T00:04:05;1.00;;;0.80;;
26864;SDS011;40618;51.166;10.322;2023-12-20T00:06:31;1.00;;;0.77;;
26864;SDS011;40618;51.166;10.322;2023-12-20T00:08:57;0.70;;;0.70;;
26864;SDS011;40618;51.166;10.322;2023-12-20T00:11:23;1.63;;;1.10;;
26864;SDS011;40618;51.166;10.322;2023-12-20T00:13:49;1.40;;;1.30;;
26864;SDS011;40618;51.166;10.322;2023-12-20T00:16:15;1.90;;;1.60;;
26864;SDS011;40618;51.166;10.322;2023-12-20T00:18:40;2.15;;;1.40;;
26864;SDS011;40618;51.166;10.322;2023-12-20T00:21:06;1.92;;;1.73;;
26864;SDS011;40618;51.166;10.322;2023-12-20T00:23:31;1.33;;;1.23;;
26864;SDS011;40618;51.166;10.322;2023-12-20T00:25:57;1.13;;;1.02;;
26864;SDS011;40618;51.166;10.322;2023-12-20T00:28:23;1.15;;;1.00;;
26864;SDS011;40618;51.166;10.322;2023-12-20T00:30:49;1.52;;;1.10;;
26864;SDS011;40618;51.166;10.322;2023-12-20T00:33:14;1.45;;;1.35;;
26864;SDS011;40618;51.166;10.322;2023-12-20T00:35:40;1.10;;;1.00;;
26864;SDS011;40618;51.166;10.322;2023-12-20T00:38:06;1.48;;;1.10;;
26864;SDS011;40618;51.166;10.322;2023-12-20T00:40:32;1.50;;;1.40;;
26864;SDS011;40618;51.166;10.322;2023-12-20T00:42:58;1.95;;;1.52;;
26864;SDS011;40618;51.166;10.322;2023-12-20T00:45:24;1.20;;;1.10;;
26864;SDS011;40618;51.166;10.322;2023-12-20T00:47:50;1.35;;;1.10;;
26864;SDS011;40618;51.166;10.322;2023-12-20T00:50:15;1.83;;;1.55;;
26864;SDS011;40618;51.166;10.322;2023-12-20T00:52:41;1.73;;;1.25;;
26864;SDS011;40618;51.166;10.322;2023-12-20T00:55:06;1.35;;;1.15;;
26864;SDS011;40618;51.166;10.322;2023-12-20T00:57:32;1.92;;;1.38;;
26864;SDS011;40618;51.166;10.322;2023-12-20T00:59:59;1.73;;;1.35;;
26864;SDS011;40618;51.166;10.322;2023-12-20T01:02:24;1.55;;;1.30;;
26864;SDS011;40618;51.166;10.322;2023-12-20T01:04:50;3.35;;;2.17;;
26864;SDS011;40618;51.166;10.322;2023-12-20T01:07:16;2.00;;;1.75;;
26864;SDS011;40618;51.166;10.322;2023-12-20T01:09:41;2.92;;;2.30;;
26864;SDS011;40618;51.166;10.322;2023-12-20T01:12:07;2.20;;;1.40;;
26864;SDS011;40618;51.166;10.322;2023-12-20T01:14:32;1.10;;;0.88;;
26864;SDS011;40618;51.166;10.322;2023-12-20T01:16:58;0.93;;;0.80;;
26864;SDS011;40618;51.166;10.322;2023-12-20T01:19:24;1.40;;;1.30;;
26864;SDS011;40618;51.166;10.322;2023-12-20T01:21:50;1.65;;;1.45;;
26864;SDS011;40618;51.166;10.322;2023-12-20T01:24:15;1.30;;;1.20;;
26864;SDS011;40618;51.166;10.322;2023-12-20T01:26:41;5.10;;;3.35;;
26864;SDS011;40618;51.166;10.322;2023-12-20T01:29:08;1.95;;;1.45;;
26864;SDS011;40618;51.166;10.322;2023-12-20T01:31:33;1.13;;;1.05;;
26864;SDS011;40618;51.166;10.322;2023-12-20T01:33:59;1.20;;;1.10;;
26864;SDS011;40618;51.166;10.322;2023-12-20T01:36:25;0.60;;;0.60;;
26864;SDS011;40618;51.166;10.322;2023-12-20T01:38:50;0.85;;;0.80;;
26864;SDS011;40618;51.166;10.322;2023-12-20T01:41:16;0.68;;;0.68;;
26864;SDS011;40618;51.166;10.322;2023-12-20T01:43:42;1.00;;;0.80;;
26864;SDS011;40618;51.166;10.322;2023-12-20T01:46:08;0.65;;;0.65;;
26864;SDS011;40618;51.166;10.322;2023-12-20T01:48:34;0.70;;;0.70;;
26864;SDS011;40618;51.166;10.322;2023-12-20T01:51:00;0.70;;;0.70;;
26864;SDS011;40618;51.166;10.322;2023-12-20T01:53:27;0.93;;;0.90;;
26864;SDS011;40618;51.166;10.322;2023-12-20T01:55:54;2.15;;;0.60;;
26864;SDS011;40618;51.166;10.322;2023-12-20T01:58:23;0.57;;;0.57;;
26864;SDS011;40618;51.166;10.322;2023-12-20T02:00:50;0.57;;;0.57;;
26864;SDS011;40618;51.166;10.322;2023-12-20T02:03:16;0.70;;;0.70;;
26864;SDS011;40618;51.166;10.322;2023-12-20T02:05:43;0.60;;;0.60;;
26864;SDS011;40618;51.166;10.322;2023-12-20T02:08:11;0.60;;;0.60;;
26864;SDS011;40618;51.166;10.322;2023-12-20T02:10:36;0.50;;;0.50;;
26864;SDS011;40618;51.166;10.322;2023-12-20T02:13:03;0.50;;;0.50;;
26864;SDS011;40618;51.166;10.322;2023-12-20T02:15:29;0.60;;;0.60;;
26864;SDS011;40618;51.166;10.322;2023-12-20T02:17:55;0.60;;;0.60;;
26864;SDS011;40618;51.166;10.322;2023-12-20T02:20:21;2.72;;;0.75;;
26864;SDS011;40618;51.166;10.322;2023-12-20T02:22:47;0.75;;;0.75;;
26864;SDS011;40618;51.166;10.322;2023-12-20T02:25:12;0.60;;;0.60;;
26864;SDS011;40618;51.166;10.322;2023-12-20T02:27:38;0.32;;;0.32;;
26864;SDS011;40618;51.166;10.322;2023-12-20T02:30:05;1.95;;;0.60;;
26864;SDS011;40618;51.166;10.322;2023-12-20T02:32:31;1.10;;;1.00;;
26864;SDS011;40618;51.166;10.322;2023-12-20T02:34:57;0.65;;;0.57;;
26864;SDS011;40618;51.166;10.322;2023-12-20T02:37:23;0.43;;;0.43;;
26864;SDS011;40618;51.166;10.322;2023-12-20T02:39:49;0.75;;;0.75;;
26864;SDS011;40618;51.166;10.322;2023-12-20T02:42:14;0.50;;;0.50;;
26864;SDS011;40618;51.166;10.322;2023-12-20T02:44:40;0.80;;;0.80;;
26864;SDS011;40618;51.166;10.322;2023-12-20T02:47:05;0.60;;;0.40;;
26864;SDS011;40618;51.166;10.322;2023-12-20T02:49:31;0.55;;;0.55;;
26864;SDS011;40618;51.166;10.322;2023-12-20T02:51:56;0.60;;;0.60;;
26864;SDS011;40618;51.166;10.322;2023-12-20T02:54:22;0.73;;;0.50;;
26864;SDS011;40618;51.166;10.322;2023-12-20T02:56:48;0.70;;;0.70;;
26864;SDS011;40618;51.166;10.322;2023-12-20T02:59:13;0.43;;;0.43;;
26864;SDS011;40618;51.166;10.322;2023-12-20T03:01:43;0.77;;;0.77;;
26864;SDS011;40618;51.166;10.322;2023-12-20T03:04:11;0.70;;;0.70;;
26864;SDS011;40618;51.166;10.322;2023-12-20T03:06:37;0.95;;;0.65;;
26864;SDS011;40618;51.166;10.322;2023-12-20T03:09:03;0.75;;;0.75;;
26864;SDS011;40618;51.166;10.322;2023-12-20T03:11:29;0.98;;;0.77;;
26864;SDS011;40618;51.166;10.322;2023-12-20T03:13:55;1.33;;;0.75;;
26864;SDS011;40618;51.166;10.322;2023-12-20T03:16:21;0.80;;;0.80;;
26864;SDS011;40618;51.166;10.322;2023-12-20T03:18:47;0.80;;;0.80;;
26864;SDS011;40618;51.166;10.322;2023-12-20T03:21:12;0.75;;;0.70;;
26864;SDS011;40618;51.166;10.322;2023-12-20T03:23:38;0.77;;;0.77;;
26864;SDS011;40618;51.166;10.322;2023-12-20T03:26:06;1.20;;;0.80;;
26864;SDS011;40618;51.166;10.322;2023-12-20T03:28:33;2.85;;;1.10;;
26864;SDS011;40618;51.166;10.322;2023-12-20T03:30:59;2.47;;;0.80;;
26864;SDS011;40618;51.166;10.322;2023-12-20T03:33:25;0.80;;;0.63;;
26864;SDS011;40618;51.166;10.322;2023-12-20T03:35:51;1.00;;;0.63;;
26864;SDS011;40618;51.166;10.322;2023-12-20T03:38:16;1.10;;;1.00;;
26864;SDS011;40618;51.166;10.322;2023-12-20T03:40:42;1.60;;;0.73;;
26864;SDS011;40618;51.166;10.322;2023-12-20T03:43:08;0.50;;;0.40;;
26864;SDS011;40618;51.166;10.322;2023-12-20T03:45:33;0.52;;;0.52;;
26864;SDS011;40618;51.166;10.322;2023-12-20T03:47:59;1.17;;;0.70;;
26864;SDS011;40618;51.166;10.322;2023-12-20T03:50:25;1.40;;;0.50;;
26864;SDS011;40618;51.166;10.322;2023-12-20T03:52:51;2.10;;;0.80;;
26864;SDS011;40618;51.166;10.322;2023-12-20T03:55:17;1.20;;;0.80;;
26864;SDS011;40618;51.166;10.322;2023-12-20T03:57:43;1.95;;;1.10;;
26864;SDS011;40618;51.166;10.322;2023-12-20T04:00:09;1.08;;;0.90;;
26864;SDS011;40618;51.166;10.322;2023-12-20T04:02:37;1.52;;;1.00;;
26864;SDS011;40618;51.166;10.322;2023-12-20T04:05:06;0.73;;;0.73;;
26864;SDS011;40618;51.166;10.322;2023-12-20T04:07:34;0.90;;;0.80;;
26864;SDS011;40618;51.166;10.322;2023-12-20T04:10:01;1.23;;;1.13;;
26864;SDS011;40618;51.166;10.322;2023-12-20T04:12:28;1.20;;;1.08;;
26864;SDS011;40618;51.166;10.322;2023-12-20T04:14:54;1.33;;;0.52;;
26864;SDS011;40618;51.166;10.322;2023-12-20T04:17:20;1.50;;;1.10;;
26864;SDS011;40618;51.166;10.322;2023-12-20T04:19:47;1.30;;;1.00;;
26864;SDS011;40618;51.166;10.322;2023-12-20T04:22:14;1.15;;;0.80;;
26864;SDS011;40618;51.166;10.322;2023-12-20T04:24:39;3.83;;;1.02;;
26864;SDS011;40618;51.166;10.322;2023-12-20T04:27:07;1.52;;;0.93;;
26864;SDS011;40618;51.166;10.322;2023-12-20T04:29:33;2.00;;;0.93;;
26864;SDS011;40618;51.166;10.322;2023-12-20T04:31:59;1.63;;;1.10;;
26864;SDS011;40618;51.166;10.322;2023-12-20T04:34:25;1.27;;;0.93;;
26864;SDS011;40618;51.166;10.322;2023-12-20T04:36:50;1.10;;;1.00;;
26864;SDS011;40618;51.166;10.322;2023-12-20T04:39:16;1.55;;;0.93;;
26864;SDS011;40618;51.166;10.322;2023-12-20T04:41:42;1.63;;;0.90;;
26864;SDS011;40618;51.166;10.322;2023-12-20T04:44:07;1.88;;;0.93;;
26864;SDS011;40618;51.166;10.322;2023-12-20T04:46:33;0.98;;;0.90;;
26864;SDS011;40618;51.166;10.322;2023-12-20T04:48:58;1.58;;;0.75;;
26864;SDS011;40618;51.166;10.322;2023-12-20T04:51:24;5.40;;;1.00;;
26864;SDS011;40618;51.166;10.322;2023-12-20T04:53:50;6.72;;;1.25;;
26864;SDS011;40618;51.166;10.322;2023-12-20T04:56:15;3.22;;;1.30;;
26864;SDS011;40618;51.166;10.322;2023-12-20T04:58:42;1.92;;;0.90;;
26864;SDS011;40618;51.166;10.322;2023-12-20T05:01:08;1.15;;;0.73;;
26864;SDS011;40618;51.166;10.322;2023-12-20T05:03:34;3.75;;;1.00;;
26864;SDS011;40618;51.166;10.322;2023-12-20T05:06:00;3.75;;;1.00;;
26864;SDS011;40618;51.166;10.322;2023-12-20T05:08:26;5.18;;;1.30;;
26864;SDS011;40618;51.166;10.322;2023-12-20T05:10:55;2.92;;;1.30;;
26864;SDS011;40618;51.166;10.322;2023-12-20T05:13:21;3.15;;;1.20;;
26864;SDS011;40618;51.166;10.322;2023-12-20T05:15:47;1.70;;;1.20;;
26864;SDS011;40618;51.166;10.322;2023-12-20T05:18:13;2.55;;;1.60;;
26864;SDS011;40618;51.166;10.322;2023-12-20T05:20:39;2.63;;;1.25;;
26864;SDS011;40618;51.166;10.322;2023-12-20T05:23:05;2.55;;;1.45;;
26864;SDS011;40618;51.166;10.322;2023-12-20T05:25:31;3.38;;;1.20;;
26864;SDS011;40618;51.166;10.322;2023-12-20T05:27:57;1.75;;;1.38;;
26864;SDS011;40618;51.166;10.322;2023-12-20T05:30:23;2.75;;;1.33;;
26864;SDS011;40618;51.166;10.322;2023-12-20T05:32:49;2.25;;;1.80;;
26864;SDS011;40618;51.166;10.322;2023-12-20T05:35:14;2.50;;;1.63;;
26864;SDS011;40618;51.166;10.322;2023-12-20T05:37:40;2.42;;;1.30;;
26864;SDS011;40618;51.166;10.322;2023-12-20T05:40:07;2.22;;;1.50;;
26864;SDS011;40618;51.166;10.322;2023-12-20T05:42:36;2.22;;;1.90;;
26864;SDS011;40618;51.166;10.322;2023-12-20T05:45:02;2.95;;;1.80;;
26864;SDS011;40618;51.166;10.322;2023-12-20T05:47:30;5.47;;;1.90;;
26864;SDS011;40618;51.166;10.322;2023-12-20T05:49:56;2.65;;;1.85;;
26864;SDS011;40618;51.166;10.322;2023-12-20T05:52:22;3.28;;;1.52;;
26864;SDS011;40618;51.166;10.322;2023-12-20T05:54:47;2.67;;;1.67;;
26864;SDS011;40618;51.166;10.322;2023-12-20T05:57:13;2.38;;;1.50;;
26864;SDS011;40618;51.166;10.322;2023-12-20T05:59:39;2.92;;;1.52;;
26864;SDS011;40618;51.166;10.322;2023-12-20T06:02:04;4.40;;;1.73;;
26864;SDS011;40618;51.166;10.322;2023-12-20T06:04:30;3.80;;;1.95;;
26864;SDS011;40618;51.166;10.322;2023-12-20T06:06:56;5.60;;;2.10;;
26864;SDS011;40618;51.166;10.322;2023-12-20T06:09:22;5.03;;;1.80;;
26864;SDS011;40618;51.166;10.322;2023-12-20T06:11:47;5.82;;;1.90;;
26864;SDS011;40618;51.166;10.322;2023-12-20T06:14:13;5.43;;;1.88;;
26864;SDS011;40618;51.166;10.322;2023-12-20T06:16:38;4.63;;;2.15;;
26864;SDS011;40618;51.166;10.322;2023-12-20T06:19:04;3.08;;;1.60;;
26864;SDS011;40618;51.166;10.322;2023-12-20T06:21:29;3.13;;;2.05;;
26864;SDS011;40618;51.166;10.322;2023-12-20T06:23:55;2.65;;;1.92;;
26864;SDS011;40618;51.166;10.322;2023-12-20T06:26:21;4.75;;;1.48;;
26864;SDS011;40618;51.166;10.322;2023-12-20T06:28:46;2.72;;;1.40;;
26864;SDS011;40618;51.166;10.322;2023-12-20T06:31:12;4.57;;;1.35;;
26864;SDS011;40618;51.166;10.322;2023-12-20T06:33:37;3.05;;;1.83;;
26864;SDS011;40618;51.166;10.322;2023-12-20T06:36:05;3.67;;;1.60;;
26864;SDS011;40618;51.166;10.322;2023-12-20T06:38:31;3.40;;;1.50;;
26864;SDS011;40618;51.166;10.322;2023-12-20T06:40:57;4.10;;;1.52;;
26864;SDS011;40618;51.166;10.322;2023-12-20T06:43:23;3.28;;;1.42;;
26864;SDS011;40618;51.166;10.322;2023-12-20T06:45:49;2.58;;;1.60;;
26864;SDS011;40618;51.166;10.322;2023-12-20T06:48:15;6.03;;;2.10;;
26864;SDS011;40618;51.166;10.322;2023-12-20T06:50:41;3.63;;;1.55;;
26864;SDS011;40618;51.166;10.322;2023-12-20T06:53:07;3.63;;;1.10;;
26864;SDS011;40618;51.166;10.322;2023-12-20T06:55:35;6.80;;;2.03;;
26864;SDS011;40618;51.166;10.322;2023-12-20T06:58:02;3.15;;;1.30;;
26864;SDS011;40618;51.166;10.322;2023-12-20T07:00:29;4.47;;;1.90;;
26864;SDS011;40618;51.166;10.322;2023-12-20T07:02:55;7.93;;;1.95;;
26864;SDS011;40618;51.166;10.322;2023-12-20T07:05:21;3.25;;;1.40;;
26864;SDS011;40618;51.166;10.322;2023-12-20T07:07:47;4.82;;;1.60;;
26864;SDS011;40618;51.166;10.322;2023-12-20T07:10:13;3.17;;;1.60;;
26864;SDS011;40618;51.166;10.322;2023-12-20T07:12:39;2.60;;;1.58;;
26864;SDS011;40618;51.166;10.322;2023-12-20T07:15:05;1.45;;;1.10;;
26864;SDS011;40618;51.166;10.322;2023-12-20T07:17:32;3.35;;;1.55;;
26864;SDS011;40618;51.166;10.322;2023-12-20T07:19:58;5.07;;;1.90;;
26864;SDS011;40618;51.166;10.322;2023-12-20T07:22:28;5.32;;;1.13;;
26864;SDS011;40618;51.166;10.322;2023-12-20T07:24:58;2.90;;;1.15;;
26864;SDS011;40618;51.166;10.322;2023-12-20T07:27:25;3.65;;;1.63;;
26864;SDS011;40618;51.166;10.322;2023-12-20T07:29:51;7.60;;;1.58;;
26864;SDS011;40618;51.166;10.322;2023-12-20T07:32:16;7.00;;;1.60;;
26864;SDS011;40618;51.166;10.322;2023-12-20T07:34:42;3.80;;;2.28;;
26864;SDS011;40618;51.166;10.322;2023-12-20T07:37:08;2.38;;;1.58;;
26864;SDS011;40618;51.166;10.322;2023-12-20T07:39:35;6.13;;;2.08;;
26864;SDS011;40618;51.166;10.322;2023-12-20T07:42:01;2.13;;;1.50;;
26864;SDS011;40618;51.166;10.322;2023-12-20T07:44:26;5.15;;;2.15;;
26864;SDS011;40618;51.166;10.322;2023-12-20T07:46:52;7.57;;;2.03;;
26864;SDS011;40618;51.166;10.322;2023-12-20T07:49:18;16.85;;;9.98;;
26864;SDS011;40618;51.166;10.322;2023-12-20T07:51:44;14.98;;;8.10;;
26864;SDS011;40618;51.166;10.322;2023-12-20T07:54:10;15.15;;;9.10;;
26864;SDS011;40618;51.166;10.322;2023-12-20T07:56:35;10.40;;;5.93;;
26864;SDS011;40618;51.166;10.322;2023-12-20T07:59:01;5.68;;;3.22;;
26864;SDS011;40618;51.166;10.322;2023-12-20T08:01:27;5.40;;;2.72;;
26864;SDS011;40618;51.166;10.322;2023-12-20T08:03:52;5.57;;;2.15;;
26864;SDS011;40618;51.166;10.322;2023-12-20T08:06:18;9.35;;;2.67;;
26864;SDS011;40618;51.166;10.322;2023-12-20T08:08:43;4.05;;;2.20;;
26864;SDS011;40618;51.166;10.322;2023-12-20T08:11:09;7.53;;;3.08;;
26864;SDS011;40618;51.166;10.322;2023-12-20T08:13:34;7.05;;;2.80;;
26864;SDS011;40618;51.166;10.322;2023-12-20T08:16:00;5.18;;;2.08;;
26864;SDS011;40618;51.166;10.322;2023-12-20T08:18:28;6.30;;;3.25;;
26864;SDS011;40618;51.166;10.322;2023-12-20T08:20:54;7.60;;;3.03;;
26864;SDS011;40618;51.166;10.322;2023-12-20T08:23:19;5.63;;;2.65;;
26864;SDS011;40618;51.166;10.322;2023-12-20T08:25:48;4.78;;;2.25;;
26864;SDS011;40618;51.166;10.322;2023-12-20T08:28:14;7.75;;;2.45;;
26864;SDS011;40618;51.166;10.322;2023-12-20T08:30:40;3.75;;;2.33;;
26864;SDS011;40618;51.166;10.322;2023-12-20T08:33:06;7.75;;;3.25;;
26864;SDS011;40618;51.166;10.322;2023-12-20T08:35:36;5.40;;;2.38;;
26864;SDS011;40618;51.166;10.322;2023-12-20T08:38:02;6.28;;;2.15;;
26864;SDS011;40618;51.166;10.322;2023-12-20T08:40:29;4.30;;;2.10;;
26864;SDS011;40618;51.166;10.322;2023-12-20T08:42:54;5.70;;;2.17;;
26864;SDS011;40618;51.166;10.322;2023-12-20T08:45:20;5.10;;;2.47;;
26864;SDS011;40618;51.166;10.322;2023-12-20T08:47:46;9.23;;;4.13;;
26864;SDS011;40618;51.166;10.322;2023-12-20T08:50:12;6.25;;;2.60;;
26864;SDS011;40618;51.166;10.322;2023-12-20T08:52:37;5.10;;;2.50;;
26864;SDS011;40618;51.166;10.322;2023-12-20T08:55:03;4.72;;;2.10;;
26864;SDS011;40618;51.166;10.322;2023-12-20T08:57:29;8.57;;;2.45;;
26864;SDS011;40618;51.166;10.322;2023-12-20T08:59:56;6.22;;;2.35;;
26864;SDS011;40618;51.166;10.322;2023-12-20T09:02:22;3.92;;;2.10;;
26864;SDS011;40618;51.166;10.322;2023-12-20T09:04:48;5.25;;;2.65;;
26864;SDS011;40618;51.166;10.322;2023-12-20T09:07:23;9.20;;;2.85;;
26864;SDS011;40618;51.166;10.322;2023-12-20T09:09:50;5.18;;;2.08;;
26864;SDS011;40618;51.166;10.322;2023-12-20T09:12:19;6.18;;;2.33;;
26864;SDS011;40618;51.166;10.322;2023-12-20T09:14:45;3.33;;;1.83;;
26864;SDS011;40618;51.166;10.322;2023-12-20T09:17:12;4.95;;;2.00;;
26864;SDS011;40618;51.166;10.322;2023-12-20T09:19:38;4.78;;;2.10;;
26864;SDS011;40618;51.166;10.322;2023-12-20T09:22:04;6.57;;;2.47;;
26864;SDS011;40618;51.166;10.322;2023-12-20T09:24:30;4.93;;;2.38;;
26864;SDS011;40618;51.166;10.322;2023-12-20T09:26:56;7.97;;;2.60;;
26864;SDS011;40618;51.166;10.322;2023-12-20T09:29:22;5.18;;;2.13;;
26864;SDS011;40618;51.166;10.322;2023-12-20T09:31:48;5.30;;;2.20;;
26864;SDS011;40618;51.166;10.322;2023-12-20T09:34:15;3.30;;;1.80;;
26864;SDS011;40618;51.166;10.322;2023-12-20T09:36:42;8.90;;;2.47;;
26864;SDS011;40618;51.166;10.322;2023-12-20T09:39:12;4.60;;;1.75;;
26864;SDS011;40618;51.166;10.322;2023-12-20T09:41:41;7.88;;;2.20;;
26864;SDS011;40618;51.166;10.322;2023-12-20T09:44:13;7.95;;;2.22;;
26864;SDS011;40618;51.166;10.322;2023-12-20T09:46:43;3.80;;;1.83;;
26864;SDS011;40618;51.166;10.322;2023-12-20T09:49:11;6.30;;;2.45;;
26864;SDS011;40618;51.166;10.322;2023-12-20T09:51:38;6.25;;;2.20;;
26864;SDS011;40618;51.166;10.322;2023-12-20T09:54:06;8.70;;;2.70;;
26864;SDS011;40618;51.166;10.322;2023-12-20T09:56:31;7.32;;;2.00;;
26864;SDS011;40618;51.166;10.322;2023-12-20T09:58:58;8.25;;;2.65;;
26864;SDS011;40618;51.166;10.322;2023-12-20T10:01:24;5.13;;;1.80;;
26864;SDS011;40618;51.166;10.322;2023-12-20T10:03:53;6.47;;;2.63;;
26864;SDS011;40618;51.166;10.322;2023-12-20T10:06:20;4.75;;;2.90;;
26864;SDS011;40618;51.166;10.322;2023-12-20T10:08:47;8.80;;;2.53;;
26864;SDS011;40618;51.166;10.322;2023-12-20T10:11:13;9.18;;;3.40;;
26864;SDS011;40618;51.166;10.322;2023-12-20T10:13:39;11.10;;;4.72;;
26864;SDS011;40618;51.166;10.322;2023-12-20T10:16:06;8.77;;;2.85;;
26864;SDS011;40618;51.166;10.322;2023-12-20T10:18:32;6.38;;;2.45;;
26864;SDS011;40618;51.166;10.322;2023-12-20T10:20:58;6.47;;;2.72;;
26864;SDS011;40618;51.166;10.322;2023-12-20T10:23:25;5.22;;;2.17;;
26864;SDS011;40618;51.166;10.322;2023-12-20T10:25:57;4.90;;;2.22;;
26864;SDS011;40618;51.166;10.322;2023-12-20T10:28:24;9.88;;;2.15;;
26864;SDS011;40618;51.166;10.322;2023-12-20T10:30:53;9.13;;;2.10;;
26864;SDS011;40618;51.166;10.322;2023-12-20T10:33:23;4.35;;;2.28;;
26864;SDS011;40618;51.166;10.322;2023-12-20T10:35:50;8.15;;;1.83;;
26864;SDS011;40618;51.166;10.322;2023-12-20T10:38:18;6.88;;;2.67;;
26864;SDS011;40618;51.166;10.322;2023-12-20T10:40:45;4.68;;;2.00;;
26864;SDS011;40618;51.166;10.322;2023-12-20T10:43:11;5.18;;;1.90;;
26864;SDS011;40618;51.166;10.322;2023-12-20T10:45:38;6.05;;;1.77;;
26864;SDS011;40618;51.166;10.322;2023-12-20T10:48:06;6.90;;;1.90;;
26864;SDS011;40618;51.166;10.322;2023-12-20T10:50:34;5.18;;;2.10;;
26864;SDS011;40618;51.166;10.322;2023-12-20T10:53:03;5.65;;;2.28;;
26864;SDS011;40618;51.166;10.322;2023-12-20T10:55:29;6.57;;;2.28;;
26864;SDS011;40618;51.166;10.322;2023-12-20T10:57:58;4.78;;;1.80;;
26864;SDS011;40618;51.166;10.322;2023-12-20T11:00:28;4.50;;;1.80;;
26864;SDS011;40618;51.166;10.322;2023-12-20T11:02:56;3.58;;;2.10;;
26864;SDS011;40618;51.166;10.322;2023-12-20T11:05:36;8.30;;;2.58;;
26864;SDS011;40618;51.166;10.322;2023-12-20T11:13:17;6.40;;;2.50;;
26864;SDS011;40618;51.166;10.322;2023-12-20T11:15:49;6.97;;;2.47;;
26864;SDS011;40618;51.166;10.322;2023-12-20T11:18:15;5.88;;;2.33;;
26864;SDS011;40618;51.166;10.322;2023-12-20T11:20:41;5.53;;;1.73;;
26864;SDS011;40618;51.166;10.322;2023-12-20T11:23:08;9.00;;;1.92;;
26864;SDS011;40618;51.166;10.322;2023-12-20T11:25:47;8.15;;;2.67;;
26864;SDS011;40618;51.166;10.322;2023-12-20T11:28:20;6.93;;;2.03;;
26864;SDS011;40618;51.166;10.322;2023-12-20T11:30:48;3.85;;;2.00;;
26864;SDS011;40618;51.166;10.322;2023-12-20T11:36:19;5.95;;;2.25;;
26864;SDS011;40618;51.166;10.322;2023-12-20T11:38:58;2.88;;;1.60;;
26864;SDS011;40618;51.166;10.322;2023-12-20T11:41:25;5.78;;;2.15;;
26864;SDS011;40618;51.166;10.322;2023-12-20T11:43:55;5.68;;;1.70;;
26864;SDS011;40618;51.166;10.322;2023-12-20T11:46:21;4.00;;;2.37;;
26864;SDS011;40618;51.166;10.322;2023-12-20T11:48:47;8.18;;;3.08;;
26864;SDS011;40618;51.166;10.322;2023-12-20T11:51:13;5.88;;;2.50;;
26864;SDS011;40618;51.166;10.322;2023-12-20T11:53:40;4.53;;;2.10;;
26864;SDS011;40618;51.166;10.322;2023-12-20T11:56:07;5.72;;;2.47;;
26864;SDS011;40618;51.166;10.322;2023-12-20T11:58:34;7.53;;;2.05;;
26864;SDS011;40618;51.166;10.322;2023-12-20T12:01:00;4.20;;;1.85;;
26864;SDS011;40618;51.166;10.322;2023-12-20T12:03:29;6.07;;;1.92;;
26864;SDS011;40618;51.166;10.322;2023-12-20T12:05:55;4.25;;;1.75;;
26864;SDS011;40618;51.166;10.322;2023-12-20T12:08:21;3.17;;;1.50;;
26864;SDS011;40618;51.166;10.322;2023-12-20T12:10:46;2.50;;;1.27;;
26864;SDS011;40618;51.166;10.322;2023-12-20T12:13:12;5.35;;;1.85;;
26864;SDS011;40618;51.166;10.322;2023-12-20T12:15:39;2.80;;;1.80;;
26864;SDS011;40618;51.166;10.322;2023-12-20T12:18:05;5.07;;;1.70;;
26864;SDS011;40618;51.166;10.322;2023-12-20T12:20:32;2.90;;;1.70;;
26864;SDS011;40618;51.166;10.322;2023-12-20T12:22:59;10.93;;;2.17;;
26864;SDS011;40618;51.166;10.322;2023-12-20T12:25:30;3.22;;;1.83;;
26864;SDS011;40618;51.166;10.322;2023-12-20T12:28:00;5.15;;;1.63;;
26864;SDS011;40618;51.166;10.322;2023-12-20T12:30:26;5.05;;;1.90;;
26864;SDS011;40618;51.166;10.322;2023-12-20T12:32:53;4.03;;;1.80;;
26864;SDS011;40618;51.166;10.322;2023-12-20T12:35:21;4.70;;;1.85;;
26864;SDS011;40618;51.166;10.322;2023-12-20T12:37:47;2.70;;;1.52;;
26864;SDS011;40618;51.166;10.322;2023-12-20T12:40:13;3.03;;;1.55;;
26864;SDS011;40618;51.166;10.322;2023-12-20T12:42:43;1.95;;;1.15;;
26864;SDS011;40618;51.166;10.322;2023-12-20T12:45:10;4.40;;;1.52;;
26864;SDS011;40618;51.166;10.322;2023-12-20T12:47:39;2.40;;;1.27;;
26864;SDS011;40618;51.166;10.322;2023-12-20T12:50:05;5.25;;;1.95;;
26864;SDS011;40618;51.166;10.322;2023-12-20T12:52:31;2.38;;;1.20;;
26864;SDS011;40618;51.166;10.322;2023-12-20T12:54:57;3.28;;;1.17;;
26864;SDS011;40618;51.166;10.322;2023-12-20T12:57:23;2.60;;;1.38;;
26864;SDS011;40618;51.166;10.322;2023-12-20T12:59:49;3.72;;;2.05;;
26864;SDS011;40618;51.166;10.322;2023-12-20T13:02:15;4.50;;;1.70;;
26864;SDS011;40618;51.166;10.322;2023-12-20T13:04:41;4.13;;;1.52;;
26864;SDS011;40618;51.166;10.322;2023-12-20T13:07:07;4.32;;;1.30;;
26864;SDS011;40618;51.166;10.322;2023-12-20T13:09:37;2.22;;;1.20;;
26864;SDS011;40618;51.166;10.322;2023-12-20T13:12:03;2.25;;;1.35;;
26864;SDS011;40618;51.166;10.322;2023-12-20T13:14:32;3.50;;;1.60;;
26864;SDS011;40618;51.166;10.322;2023-12-20T13:16:59;3.50;;;1.40;;
26864;SDS011;40618;51.166;10.322;2023-12-20T13:19:26;3.72;;;1.77;;
26864;SDS011;40618;51.166;10.322;2023-12-20T13:21:53;4.35;;;1.55;;
26864;SDS011;40618;51.166;10.322;2023-12-20T13:24:18;2.58;;;1.48;;
26864;SDS011;40618;51.166;10.322;2023-12-20T13:26:44;2.42;;;0.90;;
26864;SDS011;40618;51.166;10.322;2023-12-20T13:29:09;2.33;;;1.08;;
26864;SDS011;40618;51.166;10.322;2023-12-20T13:31:35;5.43;;;1.17;;
26864;SDS011;40618;51.166;10.322;2023-12-20T13:34:01;1.25;;;0.70;;
26864;SDS011;40618;51.166;10.322;2023-12-20T13:36:27;3.22;;;1.45;;
26864;SDS011;40618;51.166;10.322;2023-12-20T13:38:52;4.47;;;1.48;;
26864;SDS011;40618;51.166;10.322;2023-12-20T13:41:19;2.63;;;1.42;;
26864;SDS011;40618;51.166;10.322;2023-12-20T13:43:45;1.98;;;1.45;;
26864;SDS011;40618;51.166;10.322;2023-12-20T13:46:10;4.25;;;1.65;;
26864;SDS011;40618;51.166;10.322;2023-12-20T13:48:36;2.15;;;1.25;;
26864;SDS011;40618;51.166;10.322;2023-12-20T13:51:02;2.72;;;1.05;;
26864;SDS011;40618;51.166;10.322;2023-12-20T13:53:28;3.17;;;1.52;;
26864;SDS011;40618;51.166;10.322;2023-12-20T13:55:53;4.90;;;1.60;;
26864;SDS011;40618;51.166;10.322;2023-12-20T13:58:19;3.13;;;0.88;;
26864;SDS011;40618;51.166;10.322;2023-12-20T14:00:45;3.65;;;1.13;;
26864;SDS011;40618;51.166;10.322;2023-12-20T14:03:11;1.63;;;0.88;;
26864;SDS011;40618;51.166;10.322;2023-12-20T14:05:36;2.03;;;0.95;;
26864;SDS011;40618;51.166;10.322;2023-12-20T14:08:02;2.70;;;0.95;;
26864;SDS011;40618;51.166;10.322;2023-12-20T14:10:28;3.80;;;1.30;;
26864;SDS011;40618;51.166;10.322;2023-12-20T14:12:54;1.48;;;0.80;;
26864;SDS011;40618;51.166;10.322;2023-12-20T14:15:20;3.33;;;0.85;;
26864;SDS011;40618;51.166;10.322;2023-12-20T14:17:45;2.60;;;1.23;;
26864;SDS011;40618;51.166;10.322;2023-12-20T14:20:11;4.20;;;1.13;;
26864;SDS011;40618;51.166;10.322;2023-12-20T14:22:38;2.03;;;1.13;;
26864;SDS011;40618;51.166;10.322;2023-12-20T14:25:04;1.88;;;1.25;;
26864;SDS011;40618;51.166;10.322;2023-12-20T14:27:31;2.42;;;1.30;;
26864;SDS011;40618;51.166;10.322;2023-12-20T14:29:57;1.45;;;1.20;;
26864;SDS011;40618;51.166;10.322;2023-12-20T14:32:23;2.58;;;1.48;;
26864;SDS011;40618;51.166;10.322;2023-12-20T14:34:51;3.80;;;1.30;;
26864;SDS011;40618;51.166;10.322;2023-12-20T14:37:17;2.50;;;1.27;;